createdAt,value
2022-08-16T00:01:25.033Z,48.84
2022-08-16T00:04:18.476Z,48.52
2022-08-16T00:07:09.355Z,48.95
2022-08-16T00:10:01.235Z,48.85
2022-08-16T00:12:51.386Z,49.46
2022-08-16T00:15:51.740Z,49.48
2022-08-16T00:18:43.994Z,49.14
2022-08-16T00:21:33.942Z,49.31
2022-08-16T00:24:31.392Z,49.49
2022-08-16T00:27:24.185Z,49.95
2022-08-16T00:30:28.513Z,50.20
2022-08-16T00:33:18.613Z,50.46
2022-08-16T00:36:08.900Z,50.83
2022-08-16T00:38:57.804Z,50.71
2022-08-16T00:41:49.745Z,51.13
2022-08-16T00:44:42.520Z,51.75
2022-08-16T00:47:31.750Z,52.24
2022-08-16T00:50:36.032Z,52.13
2022-08-16T00:53:25.950Z,52.69
2022-08-16T00:56:57.131Z,52.74
2022-08-16T00:59:33.008Z,52.83
2022-08-16T01:02:31.504Z,53.27
2022-08-16T01:05:22.792Z,53.25
2022-08-16T01:08:35.408Z,53.30
2022-08-16T01:11:27.112Z,53.23
2022-08-16T01:14:25.082Z,53.28
2022-08-16T01:17:20.883Z,53.71
2022-08-16T01:20:23.805Z,54.34
2022-08-16T01:23:18.319Z,54.63
2022-08-16T01:26:33.781Z,54.47
2022-08-16T01:29:24.358Z,55.01
2022-08-16T01:32:38.987Z,54.69
2022-08-16T01:35:35.371Z,54.79
2022-08-16T01:38:33.256Z,55.29
2022-08-16T01:41:26.572Z,55.21
2022-08-16T01:44:21.055Z,55.08
2022-08-16T01:47:10.774Z,54.95
2022-08-16T01:50:42.407Z,54.68
2022-08-16T01:53:11.936Z,54.55
2022-08-16T01:56:27.675Z,54.12
2022-08-16T01:59:17.850Z,53.70
2022-08-16T02:05:16.592Z,53.43
2022-08-16T02:08:08.727Z,53.25
2022-08-16T02:11:17.792Z,53.62
2022-08-16T02:14:18.231Z,53.49
2022-08-16T02:17:12.871Z,53.47
2022-08-16T02:20:11.655Z,53.16
2022-08-16T02:23:05.900Z,53.36
2022-08-16T02:25:54.936Z,53.72
2022-08-16T02:28:47.294Z,53.90
2022-08-16T02:32:04.577Z,54.31
2022-08-16T02:34:47.627Z,54.18
2022-08-16T02:37:52.788Z,54.71
2022-08-16T02:40:45.406Z,54.09
2022-08-16T02:43:36.316Z,54.20
2022-08-16T02:46:30.164Z,53.89
2022-08-16T02:49:58.542Z,54.17
2022-08-16T02:52:35.103Z,54.02
2022-08-16T02:55:41.321Z,54.28
2022-08-16T02:58:32.617Z,54.63
2022-08-16T03:01:37.106Z,55.03
2022-08-16T03:04:51.934Z,55.21
2022-08-16T03:07:50.541Z,56.04
2022-08-16T03:10:41.361Z,56.22
2022-08-16T03:13:40.002Z,56.70
2022-08-16T03:16:38.470Z,57.02
2022-08-16T03:19:48.068Z,57.40
2022-08-16T03:22:47.211Z,57.71
2022-08-16T03:25:41.058Z,57.78
2022-08-16T03:28:34.630Z,58.12
2022-08-16T03:31:25.303Z,57.97
2022-08-16T03:34:24.097Z,57.97
2022-08-16T03:37:12.974Z,58.20
2022-08-16T03:40:06.459Z,58.29
2022-08-16T03:43:19.231Z,58.27
2022-08-16T03:46:10.804Z,58.16
2022-08-16T03:49:00.561Z,58.06
2022-08-16T03:51:52.090Z,58.04
2022-08-16T03:54:53.408Z,58.43
2022-08-16T03:57:52.293Z,58.71
2022-08-16T04:00:43.210Z,58.12
2022-08-16T04:03:37.726Z,58.32
2022-08-16T04:06:26.918Z,58.68
2022-08-16T04:09:16.639Z,58.66
2022-08-16T04:12:10.363Z,58.61
2022-08-16T04:15:07.811Z,58.88
2022-08-16T04:18:01.998Z,59.20
2022-08-16T04:20:53.647Z,59.22
2022-08-16T04:23:48.346Z,59.44
2022-08-16T04:26:37.796Z,59.46
2022-08-16T04:29:46.126Z,59.48
2022-08-16T04:32:40.983Z,59.66
2022-08-16T04:35:34.075Z,59.44
2022-08-16T04:38:24.263Z,59.44
2022-08-16T04:41:14.745Z,59.34
2022-08-16T04:44:32.614Z,59.69
2022-08-16T04:47:21.390Z,59.49
2022-08-16T04:50:19.064Z,59.68
2022-08-16T04:53:22.880Z,59.45
2022-08-16T04:56:16.483Z,59.36
2022-08-16T04:59:08.324Z,59.58
2022-08-16T05:01:58.509Z,59.07
2022-08-16T05:04:48.470Z,59.24
2022-08-16T05:07:39.116Z,59.51
2022-08-16T05:10:47.926Z,59.22
2022-08-16T05:13:42.076Z,59.13
2022-08-16T05:16:34.824Z,59.20
2022-08-16T05:19:27.963Z,59.15
2022-08-16T05:22:36.336Z,59.07
2022-08-16T05:25:41.340Z,59.09
2022-08-16T05:28:37.584Z,58.83
2022-08-16T05:31:30.734Z,58.78
2022-08-16T05:34:22.274Z,58.87
2022-08-16T05:37:16.120Z,59.23
2022-08-16T05:40:13.152Z,58.89
2022-08-16T05:43:05.212Z,59.08
2022-08-16T05:45:55.927Z,58.91
2022-08-16T05:48:46.158Z,58.41
2022-08-16T05:51:46.029Z,58.43
2022-08-16T05:54:44.383Z,58.15
2022-08-16T05:57:36.156Z,58.58
2022-08-16T06:00:26.970Z,58.38
2022-08-16T06:03:17.784Z,58.49
2022-08-16T06:06:28.169Z,58.51
2022-08-16T06:09:19.910Z,58.69
2022-08-16T06:12:09.876Z,58.39
2022-08-16T06:15:04.306Z,58.35
2022-08-16T06:18:00.513Z,58.25
2022-08-16T06:20:55.166Z,57.94
2022-08-16T06:23:48.620Z,58.01
2022-08-16T06:26:44.992Z,58.30
2022-08-16T06:29:50.292Z,58.29
2022-08-16T06:32:42.888Z,58.20
2022-08-16T06:35:15.764Z,58.58
2022-08-16T06:37:51.269Z,58.66
2022-08-16T06:40:22.221Z,58.30
2022-08-16T06:43:03.080Z,58.55
2022-08-16T06:45:43.696Z,58.34
2022-08-16T06:48:21.234Z,58.19
2022-08-16T06:51:05.552Z,58.00
2022-08-16T06:53:36.397Z,57.83
2022-08-16T06:56:14.929Z,57.29
2022-08-16T06:59:03.502Z,57.06
2022-08-16T07:01:53.684Z,57.29
2022-08-16T07:04:32.639Z,56.67
2022-08-16T07:07:11.897Z,56.73
2022-08-16T07:09:44.570Z,56.71
2022-08-16T07:12:15.355Z,57.02
2022-08-16T07:14:47.869Z,56.58
2022-08-16T07:17:21.853Z,56.33
2022-08-16T07:20:29.377Z,56.49
2022-08-16T07:22:59.015Z,56.26
2022-08-16T07:25:34.276Z,56.06
2022-08-16T07:28:12.111Z,55.82
2022-08-16T07:30:49.970Z,56.05
2022-08-16T07:33:52.776Z,55.28
2022-08-16T07:36:21.639Z,55.24
2022-08-16T07:38:55.583Z,55.08
2022-08-16T07:41:24.567Z,54.74
2022-08-16T07:44:00.550Z,54.73
2022-08-16T07:46:38.947Z,53.90
2022-08-16T07:49:19.371Z,53.80
2022-08-16T07:51:48.545Z,53.79
2022-08-16T07:54:32.277Z,53.80
2022-08-16T07:57:11.333Z,53.79
2022-08-16T07:59:45.664Z,53.28
2022-08-16T08:02:20.290Z,53.10
2022-08-16T08:04:54.873Z,52.71
2022-08-16T08:07:28.106Z,52.50
2022-08-16T08:09:59.271Z,52.29
2022-08-16T08:12:31.557Z,52.19
2022-08-16T08:15:05.889Z,52.08
2022-08-16T08:17:43.986Z,51.65
2022-08-16T08:20:28.309Z,51.40
2022-08-16T08:23:01.613Z,51.32
2022-08-16T08:25:54.905Z,50.82
2022-08-16T08:28:26.731Z,51.15
2022-08-16T08:31:02.985Z,50.63
2022-08-16T08:33:36.535Z,50.34
2022-08-16T08:36:11.908Z,50.07
2022-08-16T08:38:53.429Z,49.75
2022-08-16T08:41:29.619Z,49.29
2022-08-16T08:44:01.281Z,48.68
2022-08-16T08:47:00.151Z,48.15
2022-08-16T08:49:50.295Z,47.75
2022-08-16T08:52:33.683Z,47.35
2022-08-16T08:55:10.723Z,46.57
2022-08-16T08:57:43.829Z,46.39
2022-08-16T09:00:31.883Z,46.12
2022-08-16T09:03:19.132Z,45.42
2022-08-16T09:05:51.960Z,45.24
2022-08-16T09:08:22.578Z,44.84
2022-08-16T09:11:03.215Z,44.22
2022-08-16T09:13:34.527Z,43.64
2022-08-16T09:16:05.152Z,43.50
2022-08-16T09:18:35.761Z,43.08
2022-08-16T09:21:09.531Z,43.13
2022-08-16T09:23:39.757Z,42.46
2022-08-16T09:26:44.066Z,41.84
2022-08-16T09:29:15.825Z,41.54
2022-08-16T09:31:53.464Z,40.90
2022-08-16T09:34:22.280Z,40.32
2022-08-16T09:36:54.579Z,40.03
2022-08-16T09:39:23.981Z,39.81
2022-08-16T09:41:54.346Z,39.53
2022-08-16T09:45:09.735Z,38.73
2022-08-16T09:47:14.819Z,38.49
2022-08-16T09:49:43.628Z,37.68
2022-08-16T09:52:22.379Z,37.15
2022-08-16T09:54:51.742Z,36.40
2022-08-16T09:57:20.486Z,36.22
2022-08-16T09:59:55.999Z,35.54
2022-08-16T10:02:27.860Z,35.24
2022-08-16T10:04:58.560Z,35.04
2022-08-16T10:07:44.399Z,34.85
2022-08-16T10:10:30.387Z,35.26
2022-08-16T10:13:16.344Z,34.94
2022-08-16T10:15:55.680Z,34.95
2022-08-16T10:19:02.011Z,34.47
2022-08-16T10:21:17.315Z,34.13
2022-08-16T10:23:48.595Z,33.44
2022-08-16T10:27:16.244Z,32.99
2022-08-16T10:29:06.900Z,32.73
2022-08-16T10:31:44.241Z,32.92
2022-08-16T10:34:30.999Z,32.39
2022-08-16T10:37:01.966Z,32.17
2022-08-16T10:39:40.547Z,31.99
2022-08-16T10:42:13.338Z,31.42
2022-08-16T10:44:42.720Z,30.67
2022-08-16T10:47:24.377Z,31.01
2022-08-16T10:49:53.014Z,30.04
2022-08-16T10:52:24.332Z,30.28
2022-08-16T10:57:43.225Z,29.89
2022-08-16T11:00:22.307Z,29.95
2022-08-16T11:02:57.740Z,29.63
2022-08-16T11:08:31.274Z,28.89
2022-08-16T11:11:11.824Z,28.72
2022-08-16T11:14:11.223Z,28.46
2022-08-16T11:19:28.262Z,27.66
2022-08-16T11:22:23.158Z,27.12
2022-08-16T11:25:11.955Z,26.90
2022-08-16T11:27:37.595Z,26.43
2022-08-16T11:30:12.283Z,26.58
2022-08-16T11:32:48.774Z,25.95
2022-08-16T11:35:43.416Z,25.77
2022-08-16T11:38:46.897Z,25.92
2022-08-16T11:41:03.985Z,25.27
2022-08-16T11:43:34.971Z,24.96
2022-08-16T11:46:45.100Z,24.53
2022-08-16T11:48:57.363Z,24.61
2022-08-16T11:51:27.377Z,24.54
2022-08-16T11:53:57.236Z,24.10
2022-08-16T11:56:39.732Z,23.79
2022-08-16T11:59:16.007Z,23.89
2022-08-16T12:01:59.182Z,23.69
2022-08-16T12:04:29.199Z,24.02
2022-08-16T12:07:00.202Z,24.20
2022-08-16T12:09:30.616Z,24.17
2022-08-16T12:12:03.091Z,24.11
2022-08-16T12:14:35.529Z,23.90
2022-08-16T12:17:08.500Z,23.61
2022-08-16T12:19:37.135Z,23.46
2022-08-16T12:22:19.047Z,23.36
2022-08-16T12:24:52.126Z,23.28
2022-08-16T12:27:24.522Z,23.35
2022-08-16T12:29:54.025Z,23.26
2022-08-16T12:32:38.287Z,23.03
2022-08-16T12:35:14.387Z,22.81
2022-08-16T12:37:46.262Z,23.06
2022-08-16T12:40:25.009Z,23.33
2022-08-16T12:42:59.718Z,23.32
2022-08-16T12:45:31.792Z,23.19
2022-08-16T12:48:35.034Z,23.41
2022-08-16T12:51:10.902Z,23.71
2022-08-16T12:53:52.027Z,23.83
2022-08-16T12:56:22.167Z,23.75
2022-08-16T12:58:55.919Z,23.43
2022-08-16T13:01:29.886Z,22.94
2022-08-16T13:04:20.800Z,22.90
2022-08-16T13:06:50.411Z,22.88
2022-08-16T13:09:26.022Z,22.96
2022-08-16T13:12:04.351Z,23.11
2022-08-16T13:14:38.879Z,22.54
2022-08-16T13:17:14.205Z,22.52
2022-08-16T13:25:20.882Z,21.67
2022-08-16T13:28:02.308Z,21.88
2022-08-16T13:30:41.162Z,22.26
2022-08-16T13:33:13.395Z,22.60
2022-08-16T13:35:45.363Z,22.83
2022-08-16T13:38:24.360Z,22.82
2022-08-16T13:40:57.676Z,22.71
2022-08-16T13:43:27.281Z,22.80
2022-08-16T13:45:56.456Z,22.77
2022-08-16T13:48:25.945Z,22.92
2022-08-16T13:51:00.570Z,22.67
2022-08-16T13:53:32.972Z,22.37
2022-08-16T13:56:02.746Z,22.46
2022-08-16T13:58:36.677Z,22.72
2022-08-16T14:01:09.763Z,22.52
2022-08-16T14:03:40.044Z,22.77
2022-08-16T14:06:10.989Z,22.86
2022-08-16T14:08:42.211Z,22.71
2022-08-16T14:11:14.412Z,22.58
2022-08-16T14:13:44.638Z,22.33
2022-08-16T14:16:23.478Z,21.97
2022-08-16T14:18:53.626Z,21.37
2022-08-16T14:21:23.876Z,21.25
2022-08-16T14:23:53.242Z,21.37
2022-08-16T14:26:24.983Z,21.35
2022-08-16T14:28:54.610Z,21.69
2022-08-16T14:31:27.088Z,21.63
2022-08-16T14:33:55.948Z,22.21
2022-08-16T14:36:29.518Z,21.82
2022-08-16T14:38:59.385Z,22.18
2022-08-16T14:41:29.998Z,22.47
2022-08-16T14:43:59.129Z,22.13
2022-08-16T14:46:27.534Z,22.02
2022-08-16T14:48:56.499Z,22.14
2022-08-16T14:51:27.391Z,22.03
2022-08-16T14:53:57.382Z,21.55
2022-08-16T14:56:38.976Z,21.47
2022-08-16T14:59:14.224Z,21.10
2022-08-16T15:01:58.841Z,20.82
2022-08-16T15:04:39.653Z,20.43
2022-08-16T15:07:18.253Z,20.98
2022-08-16T15:10:00.400Z,20.61
2022-08-16T15:12:33.993Z,20.79
2022-08-16T15:15:12.466Z,20.82
2022-08-16T15:17:54.213Z,21.06
2022-08-16T15:20:29.509Z,20.65
2022-08-16T15:22:59.853Z,20.87
2022-08-16T15:25:32.192Z,20.74
2022-08-16T15:28:04.762Z,21.33
2022-08-16T15:30:57.082Z,21.56
2022-08-16T15:33:27.771Z,21.79
2022-08-16T15:35:58.370Z,21.96
2022-08-16T15:38:43.585Z,22.10
2022-08-16T15:41:49.938Z,22.16
2022-08-16T15:44:22.170Z,22.00
2022-08-16T15:46:58.500Z,22.39
2022-08-16T15:49:34.641Z,22.64
2022-08-16T15:52:10.447Z,22.60
2022-08-16T15:54:53.678Z,22.78
2022-08-16T15:57:25.468Z,23.04
2022-08-16T15:59:55.646Z,22.99
2022-08-16T16:02:30.543Z,22.87
2022-08-16T16:05:02.376Z,22.60
2022-08-16T16:07:34.033Z,23.11
2022-08-16T16:10:13.274Z,22.79
2022-08-16T16:12:51.285Z,22.85
2022-08-16T16:15:26.113Z,23.21
2022-08-16T16:18:09.446Z,23.37
2022-08-16T16:20:42.284Z,23.25
2022-08-16T16:23:12.492Z,23.06
2022-08-16T16:25:43.808Z,23.00
2022-08-16T16:29:04.973Z,23.07
2022-08-16T16:31:08.251Z,22.86
2022-08-16T16:33:41.930Z,22.75
2022-08-16T16:36:15.357Z,22.50
2022-08-16T16:38:47.627Z,22.63
2022-08-16T16:41:20.476Z,22.36
2022-08-16T16:43:53.326Z,22.58
2022-08-16T16:46:42.063Z,22.40
2022-08-16T16:49:15.095Z,22.54
2022-08-16T16:51:49.843Z,22.50
2022-08-16T16:54:27.862Z,22.65
2022-08-16T16:56:58.764Z,22.99
2022-08-16T16:59:28.474Z,23.34
2022-08-16T17:02:41.232Z,23.46
2022-08-16T17:04:49.818Z,23.86
2022-08-16T17:07:24.104Z,23.70
2022-08-16T17:09:53.748Z,24.06
2022-08-16T17:12:25.479Z,24.23
2022-08-16T17:15:12.673Z,23.93
2022-08-16T17:17:59.811Z,24.40
2022-08-16T17:20:31.153Z,24.22
2022-08-16T17:23:01.190Z,24.39
2022-08-16T17:25:36.636Z,24.28
2022-08-16T17:28:58.651Z,24.24
2022-08-16T17:30:58.504Z,24.32
2022-08-16T17:33:36.927Z,24.08
2022-08-16T17:36:36.590Z,24.05
2022-08-16T17:39:07.979Z,24.50
2022-08-16T17:41:38.323Z,24.67
2022-08-16T17:44:08.655Z,24.83
2022-08-16T17:46:51.404Z,24.61
2022-08-16T17:49:21.984Z,24.91
2022-08-16T17:51:51.731Z,25.00
2022-08-16T17:54:30.811Z,25.48
2022-08-16T17:57:00.420Z,25.55
2022-08-16T17:59:29.856Z,25.75
2022-08-16T18:01:59.330Z,25.59
2022-08-16T18:04:49.861Z,26.30
2022-08-16T18:07:17.859Z,26.80
2022-08-16T18:09:46.256Z,26.62
2022-08-16T18:12:19.858Z,27.25
2022-08-16T18:15:12.055Z,27.00
2022-08-16T18:17:40.956Z,27.35
2022-08-16T18:20:33.264Z,27.70
2022-08-16T18:23:07.975Z,28.84
2022-08-16T18:25:37.418Z,28.89
2022-08-16T18:28:06.701Z,29.33
2022-08-16T18:30:35.056Z,29.89
2022-08-16T18:33:03.556Z,29.94
2022-08-16T18:35:32.111Z,30.07
2022-08-16T18:38:00.606Z,30.49
2022-08-16T18:40:31.867Z,30.38
2022-08-16T18:43:01.980Z,30.66
2022-08-16T18:45:35.321Z,31.36
2022-08-16T18:48:06.636Z,31.23
2022-08-16T18:50:59.632Z,31.55
2022-08-16T18:53:26.887Z,31.62
2022-08-16T18:56:00.844Z,31.59
2022-08-16T18:58:31.037Z,31.97
2022-08-16T19:01:00.258Z,32.47
2022-08-16T19:03:31.164Z,32.31
2022-08-16T19:06:02.350Z,32.65
2022-08-16T19:08:32.673Z,32.78
2022-08-16T19:11:02.893Z,32.89
2022-08-16T19:13:33.407Z,33.16
2022-08-16T19:16:04.301Z,33.09
2022-08-16T19:18:36.565Z,33.33
2022-08-16T19:21:06.738Z,33.57
2022-08-16T19:23:37.426Z,33.51
2022-08-16T19:26:10.211Z,33.87
2022-08-16T19:28:58.306Z,34.18
2022-08-16T19:31:31.491Z,34.28
2022-08-16T19:34:00.642Z,34.37
2022-08-16T19:36:35.988Z,34.63
2022-08-16T19:39:08.821Z,34.88
2022-08-16T19:41:42.020Z,35.38
2022-08-16T19:44:11.348Z,35.09
2022-08-16T19:46:41.746Z,35.41
2022-08-16T19:49:10.196Z,35.37
2022-08-16T19:51:45.446Z,35.61
2022-08-16T19:54:13.896Z,35.73
2022-08-16T19:56:43.704Z,35.85
2022-08-16T19:59:19.238Z,35.68
2022-08-16T20:01:51.900Z,35.82
2022-08-16T20:04:21.642Z,35.93
2022-08-16T20:06:50.491Z,36.29
2022-08-16T20:09:22.457Z,36.35
2022-08-16T20:11:53.510Z,36.43
2022-08-16T20:14:25.422Z,36.67
2022-08-16T20:16:56.827Z,36.80
2022-08-16T20:19:27.117Z,36.67
2022-08-16T20:22:01.721Z,36.85
2022-08-16T20:24:34.596Z,37.05
2022-08-16T20:27:07.883Z,37.26
2022-08-16T20:29:37.706Z,37.49
2022-08-16T20:32:08.506Z,37.66
2022-08-16T20:34:37.476Z,37.75
2022-08-16T20:37:06.340Z,37.97
2022-08-16T20:39:35.064Z,38.03
2022-08-16T20:42:04.836Z,38.10
2022-08-16T20:44:33.959Z,38.08
2022-08-16T20:47:02.343Z,37.97
2022-08-16T20:49:30.751Z,38.21
2022-08-16T20:51:59.837Z,38.42
2022-08-16T20:54:29.872Z,38.48
2022-08-16T20:56:58.804Z,38.76
2022-08-16T20:59:28.874Z,38.83
2022-08-16T21:01:59.570Z,38.87
2022-08-16T21:04:30.115Z,38.90
2022-08-16T21:06:59.817Z,39.22
2022-08-16T21:09:32.406Z,39.26
2022-08-16T21:12:03.491Z,39.37
2022-08-16T21:14:34.390Z,39.36
2022-08-16T21:17:03.863Z,39.55
2022-08-16T21:19:33.870Z,39.68
2022-08-16T21:22:12.354Z,39.64
2022-08-16T21:24:41.083Z,39.72
2022-08-16T21:27:09.772Z,39.93
2022-08-16T21:29:43.420Z,40.08
2022-08-16T21:32:14.814Z,40.42
2022-08-16T21:34:43.678Z,40.43
2022-08-16T21:37:15.471Z,40.46
2022-08-16T21:39:45.788Z,40.60
2022-08-16T21:42:17.280Z,40.88
2022-08-16T21:44:47.044Z,41.04
2022-08-16T21:47:16.251Z,41.09
2022-08-16T21:49:44.623Z,41.21
2022-08-16T21:52:26.464Z,40.94
2022-08-16T21:54:56.900Z,41.14
2022-08-16T21:57:26.107Z,41.00
2022-08-16T21:59:56.932Z,41.41
2022-08-16T22:02:35.762Z,41.60
2022-08-16T22:05:07.915Z,41.97
2022-08-16T22:07:36.375Z,42.04
2022-08-16T22:11:06.899Z,42.26
2022-08-16T22:12:55.032Z,42.20
2022-08-16T22:15:26.062Z,42.05
2022-08-16T22:17:56.567Z,42.22
2022-08-16T22:20:26.441Z,42.41
2022-08-16T22:23:06.985Z,42.65
2022-08-16T22:25:35.771Z,42.83
2022-08-16T22:28:05.267Z,42.82
2022-08-16T22:30:35.852Z,42.87
2022-08-16T22:33:09.290Z,42.59
2022-08-16T22:35:42.808Z,42.59
2022-08-16T22:38:55.527Z,43.10
2022-08-16T22:41:00.871Z,42.82
2022-08-16T22:43:30.283Z,43.14
2022-08-16T22:46:00.637Z,42.94
2022-08-16T22:48:29.014Z,43.36
2022-08-16T22:50:58.247Z,43.30
2022-08-16T22:53:26.922Z,43.11
2022-08-16T22:55:57.198Z,43.14
2022-08-16T22:58:34.202Z,43.48
2022-08-16T23:01:07.733Z,43.52
2022-08-16T23:03:37.610Z,43.66
2022-08-16T23:06:07.503Z,43.54
2022-08-16T23:08:40.556Z,43.71
2022-08-16T23:11:12.444Z,43.82
2022-08-16T23:13:52.795Z,44.08
2022-08-16T23:16:32.373Z,43.77
2022-08-16T23:19:05.685Z,44.27
2022-08-16T23:21:37.435Z,44.13
2022-08-16T23:24:07.113Z,44.50
2022-08-16T23:26:46.231Z,44.43
2022-08-16T23:29:24.367Z,44.59
2022-08-16T23:31:59.859Z,44.62
2022-08-16T23:34:29.790Z,44.71
2022-08-16T23:36:58.202Z,44.91
2022-08-16T23:39:27.363Z,44.94
2022-08-16T23:41:55.814Z,44.97
2022-08-16T23:44:56.922Z,44.76
2022-08-16T23:47:14.226Z,45.16
2022-08-16T23:49:56.418Z,44.96
2022-08-16T23:52:54.638Z,44.87
2022-08-16T23:55:20.370Z,45.33
2022-08-16T23:57:49.047Z,45.25
